createdAt,value
2018-03-17T00:04:06.107Z,101091.54
2018-03-17T00:09:08.571Z,101091.14
2018-03-17T00:14:11.167Z,101085.07
2018-03-17T00:19:13.688Z,101087.86
2018-03-17T00:24:16.199Z,101078.50
2018-03-17T00:29:23.474Z,101093.41
2018-03-17T00:34:26.894Z,101090.03
2018-03-17T00:39:29.349Z,101090.54
2018-03-17T00:44:31.813Z,101101.02
2018-03-17T00:49:34.273Z,101101.26
2018-03-17T00:54:36.760Z,101095.13
2018-03-17T00:59:39.238Z,101100.60
2018-03-17T01:04:41.732Z,101092.35
2018-03-17T01:09:44.218Z,101095.88
2018-03-17T01:14:46.677Z,101080.27
2018-03-17T01:19:49.250Z,101094.79
2018-03-17T01:24:51.721Z,101090.52
2018-03-17T01:29:54.209Z,101083.57
2018-03-17T01:34:56.707Z,101082.42
2018-03-17T01:39:59.197Z,101071.00
2018-03-17T01:45:01.687Z,101069.30
2018-03-17T01:50:04.170Z,101085.22
2018-03-17T01:55:06.660Z,101074.39
2018-03-17T02:00:09.150Z,101066.30
2018-03-17T02:05:11.640Z,101063.72
2018-03-17T02:10:14.155Z,101057.73
2018-03-17T02:15:16.625Z,101072.30
2018-03-17T02:20:19.106Z,101077.46
2018-03-17T02:25:21.570Z,101085.09
2018-03-17T02:30:24.062Z,101087.09
2018-03-17T02:35:26.613Z,101091.95
2018-03-17T02:40:29.032Z,101097.45
2018-03-17T02:45:31.516Z,101098.72
2018-03-17T02:50:34.001Z,101104.37
2018-03-17T02:55:36.484Z,101107.77
2018-03-17T03:00:38.962Z,101126.16
2018-03-17T03:05:41.438Z,101134.18
2018-03-17T03:10:44.017Z,101132.95
2018-03-17T03:15:47.434Z,101129.36
2018-03-17T03:20:49.894Z,101128.02
2018-03-17T03:25:52.386Z,101118.63
2018-03-17T03:30:55.001Z,101126.59
2018-03-17T03:35:57.549Z,101135.86
2018-03-17T03:41:00.021Z,101131.20
2018-03-17T03:46:02.529Z,101131.11
2018-03-17T03:51:05.089Z,101141.87
2018-03-17T03:56:07.567Z,101134.64
2018-03-17T04:01:10.069Z,101141.48
2018-03-17T04:06:12.565Z,101148.30
2018-03-17T04:11:15.034Z,101152.78
2018-03-17T04:16:17.576Z,101153.61
2018-03-17T04:21:20.085Z,101152.50
2018-03-17T04:26:22.546Z,101159.58
2018-03-17T04:31:25.975Z,101165.47
2018-03-17T04:36:28.519Z,101158.97
2018-03-17T04:41:31.004Z,101166.89
2018-03-17T04:46:33.480Z,101165.75
2018-03-17T04:51:35.954Z,101170.98
2018-03-17T04:56:38.403Z,101170.23
2018-03-17T05:01:41.003Z,101172.84
2018-03-17T05:06:43.502Z,101155.95
2018-03-17T05:11:45.990Z,101169.03
2018-03-17T05:16:48.451Z,101167.69
2018-03-17T05:21:50.907Z,101170.94
2018-03-17T05:26:53.360Z,101174.95
2018-03-17T05:31:55.864Z,101186.73
2018-03-17T05:36:58.359Z,101174.45
2018-03-17T05:42:00.839Z,101178.63
2018-03-17T05:47:03.307Z,101185.83
2018-03-17T05:52:05.800Z,101187.97
2018-03-17T05:57:08.295Z,101183.21
2018-03-17T06:02:10.760Z,101192.14
2018-03-17T06:07:13.367Z,101205.20
2018-03-17T06:12:15.902Z,101198.91
2018-03-17T06:17:18.391Z,101218.98
2018-03-17T06:22:20.995Z,101226.25
2018-03-17T06:27:23.498Z,101225.41
2018-03-17T06:32:26.014Z,101226.23
2018-03-17T06:37:28.475Z,101226.21
2018-03-17T06:42:30.987Z,101239.29
2018-03-17T06:47:33.460Z,101243.86
2018-03-17T06:52:35.925Z,101250.03
2018-03-17T06:57:38.419Z,101239.52
2018-03-17T07:02:40.914Z,101247.64
2018-03-17T07:07:43.410Z,101240.50
2018-03-17T07:12:45.874Z,101246.31
2018-03-17T07:17:48.326Z,101233.55
2018-03-17T07:22:50.808Z,101244.20
2018-03-17T07:27:53.258Z,101252.70
2018-03-17T07:32:55.701Z,101245.00
2018-03-17T07:37:58.165Z,101239.64
2018-03-17T07:43:00.596Z,101225.72
2018-03-17T07:48:03.203Z,101231.94
2018-03-17T07:53:05.677Z,101241.80
2018-03-17T07:58:08.170Z,101246.28
2018-03-17T08:03:10.649Z,101241.07
2018-03-17T08:08:13.241Z,101228.95
2018-03-17T08:13:15.726Z,101243.11
2018-03-17T08:18:18.204Z,101245.48
2018-03-17T08:23:20.683Z,101247.97
2018-03-17T08:28:23.247Z,101254.97
2018-03-17T08:33:25.703Z,101263.28
2018-03-17T08:38:28.183Z,101248.60
2018-03-17T08:43:30.664Z,101247.27
2018-03-17T08:48:33.113Z,101249.27
2018-03-17T08:53:35.588Z,101232.22
2018-03-17T08:58:38.053Z,101213.87
2018-03-17T09:03:40.533Z,101216.19
2018-03-17T09:08:54.839Z,101207.42
2018-03-17T09:13:57.404Z,101224.07
2018-03-17T09:18:59.876Z,101216.63
2018-03-17T09:24:02.350Z,101211.25
2018-03-17T09:29:04.820Z,101212.33
2018-03-17T09:34:07.283Z,101213.95
2018-03-17T09:39:09.917Z,101218.36
2018-03-17T09:44:12.411Z,101226.23
2018-03-17T09:49:14.883Z,101222.69
2018-03-17T09:54:17.386Z,101235.12
2018-03-17T09:59:19.851Z,101232.98
2018-03-17T10:04:22.330Z,101209.67
2018-03-17T10:09:24.860Z,101219.66
2018-03-17T10:14:27.313Z,101215.53
2018-03-17T10:19:29.764Z,101205.47
2018-03-17T10:24:32.220Z,101204.73
2018-03-17T10:29:34.684Z,101206.93
2018-03-17T10:34:37.147Z,101200.16
2018-03-17T10:39:39.601Z,101190.73
2018-03-17T10:44:42.107Z,101197.26
2018-03-17T10:49:44.586Z,101171.45
2018-03-17T10:54:47.053Z,101172.06
2018-03-17T10:59:49.530Z,101178.48
2018-03-17T11:04:51.999Z,101170.12
2018-03-17T11:09:54.574Z,101175.62
2018-03-17T11:14:59.025Z,101185.76
2018-03-17T11:20:01.595Z,101176.37
2018-03-17T11:25:04.297Z,101185.08
2018-03-17T11:30:06.876Z,101190.69
2018-03-17T11:35:09.914Z,101171.48
2018-03-17T11:40:13.305Z,101170.69
2018-03-17T11:45:15.840Z,101159.80
2018-03-17T11:50:18.321Z,101153.21
2018-03-17T11:55:20.813Z,101156.41
2018-03-17T12:00:23.325Z,101168.16
2018-03-17T12:05:25.863Z,101148.76
2018-03-17T12:10:28.344Z,101142.44
2018-03-17T12:15:30.835Z,101141.71
2018-03-17T12:20:33.342Z,101133.27
2018-03-17T12:25:36.137Z,101138.45
2018-03-17T12:30:41.366Z,101127.55
2018-03-17T12:35:43.976Z,101124.50
2018-03-17T12:40:46.513Z,101116.17
2018-03-17T12:45:49.062Z,101109.02
2018-03-17T12:50:51.519Z,101105.42
2018-03-17T12:55:53.999Z,101120.95
2018-03-17T13:00:56.505Z,101092.91
2018-03-17T13:05:59.010Z,101096.06
2018-03-17T13:11:01.536Z,101082.99
2018-03-17T13:16:04.036Z,101111.53
2018-03-17T13:21:06.644Z,101100.56
2018-03-17T13:26:09.457Z,101096.58
2018-03-17T13:31:12.034Z,101086.09
2018-03-17T13:36:26.362Z,101094.83
2018-03-17T13:41:28.888Z,101097.53
2018-03-17T13:46:32.260Z,101098.70
2018-03-17T13:51:34.926Z,101099.75
2018-03-17T13:56:37.480Z,101104.47
2018-03-17T14:01:39.971Z,101092.02
2018-03-17T14:06:42.606Z,101115.89
2018-03-17T14:11:45.278Z,101100.39
2018-03-17T14:16:47.813Z,101099.17
2018-03-17T14:21:50.310Z,101097.18
2018-03-17T14:26:52.811Z,101088.27
2018-03-17T14:31:55.313Z,101106.75
2018-03-17T14:36:57.785Z,101113.05
2018-03-17T14:42:00.267Z,101127.97
2018-03-17T14:47:02.775Z,101148.37
2018-03-17T14:52:05.360Z,101123.97
2018-03-17T14:57:07.868Z,101128.03
2018-03-17T15:02:12.430Z,101127.63
2018-03-17T15:07:15.718Z,101123.64
2018-03-17T15:12:18.569Z,101125.41
2018-03-17T15:17:21.066Z,101121.19
2018-03-17T15:22:23.556Z,101112.27
2018-03-17T15:27:26.007Z,101128.19
2018-03-17T15:32:28.524Z,101117.22
2018-03-17T15:37:31.030Z,101104.73
2018-03-17T15:42:33.501Z,101113.05
2018-03-17T15:47:36.275Z,101116.02
2018-03-17T15:52:39.384Z,101121.27
2018-03-17T15:57:42.758Z,101125.25
2018-03-17T16:02:49.776Z,101123.33
2018-03-17T16:07:52.470Z,101137.86
2018-03-17T16:12:55.062Z,101141.58
2018-03-17T16:17:57.557Z,101145.30
2018-03-17T16:23:00.091Z,101133.34
2018-03-17T16:28:02.608Z,101138.39
2018-03-17T16:33:05.124Z,101145.23
2018-03-17T16:38:07.643Z,101154.49
2018-03-17T16:43:10.365Z,101156.80
2018-03-17T16:48:13.165Z,101157.80
2018-03-17T16:53:15.702Z,101170.98
2018-03-17T16:58:18.191Z,101175.63
2018-03-17T17:03:20.808Z,101191.38
2018-03-17T17:08:23.242Z,101186.66
2018-03-17T17:13:25.734Z,101194.67
2018-03-17T17:18:28.242Z,101202.29
2018-03-17T17:23:30.738Z,101201.29
2018-03-17T17:28:33.240Z,101207.42
2018-03-17T17:33:35.934Z,101200.50
2018-03-17T17:38:38.548Z,101211.53
2018-03-17T17:43:41.128Z,101204.25
2018-03-17T17:48:43.745Z,101201.17
2018-03-17T17:53:46.213Z,101201.44
2018-03-17T17:58:48.714Z,101204.59
2018-03-17T18:03:51.248Z,101208.91
2018-03-17T18:08:53.739Z,101210.11
2018-03-17T18:13:56.221Z,101208.97
2018-03-17T18:18:58.764Z,101220.80
2018-03-17T18:24:01.326Z,101222.62
2018-03-17T18:29:03.827Z,101224.95
2018-03-17T18:34:06.339Z,101217.11
2018-03-17T18:39:08.867Z,101227.61
2018-03-17T18:44:11.565Z,101223.42
2018-03-17T18:49:14.220Z,101226.50
2018-03-17T18:54:16.738Z,101228.60
2018-03-17T18:59:19.236Z,101236.08
2018-03-17T19:04:22.952Z,101237.26
2018-03-17T19:09:25.459Z,101244.77
2018-03-17T19:14:28.028Z,101235.94
2018-03-17T19:19:30.733Z,101249.34
2018-03-17T19:24:33.708Z,101259.20
2018-03-17T19:29:36.570Z,101252.52
2018-03-17T19:34:39.562Z,101256.63
2018-03-17T19:39:42.210Z,101252.09
2018-03-17T19:44:44.753Z,101255.28
2018-03-17T19:49:47.275Z,101261.28
2018-03-17T19:54:49.806Z,101251.94
2018-03-17T19:59:52.384Z,101260.02
2018-03-17T20:04:55.055Z,101257.16
2018-03-17T20:15:06.454Z,101266.94
2018-03-17T20:20:09.150Z,101264.05
2018-03-17T20:25:12.238Z,101262.28
2018-03-17T20:30:14.800Z,101263.86
2018-03-17T20:35:17.318Z,101278.74
2018-03-17T20:40:19.976Z,101271.03
2018-03-17T20:45:22.494Z,101278.74
2018-03-17T20:50:24.994Z,101295.39
2018-03-17T20:55:27.829Z,101287.03
2018-03-17T21:00:31.197Z,101291.09
2018-03-17T21:05:36.029Z,101287.30
2018-03-17T21:10:38.958Z,101286.30
2018-03-17T21:15:41.794Z,101299.45
2018-03-17T21:20:45.732Z,101299.67
2018-03-17T21:25:48.501Z,101294.49
2018-03-17T21:30:50.986Z,101303.06
2018-03-17T21:35:53.437Z,101305.03
2018-03-17T21:40:55.934Z,101304.23
2018-03-17T21:45:58.424Z,101306.13
2018-03-17T21:51:00.921Z,101307.75
2018-03-17T21:56:03.399Z,101296.94
2018-03-17T22:01:07.440Z,101304.27
2018-03-17T22:06:10.888Z,101298.51
2018-03-17T22:11:15.154Z,101311.48
2018-03-17T22:16:17.677Z,101313.12
2018-03-17T22:21:20.776Z,101316.39
2018-03-17T22:26:23.949Z,101325.74
2018-03-17T22:31:27.841Z,101319.04
2018-03-17T22:36:30.976Z,101325.59
2018-03-17T22:41:34.715Z,101325.65
2018-03-17T22:46:39.636Z,101326.38
2018-03-17T22:51:42.148Z,101336.58
2018-03-17T22:56:47.010Z,101318.84
2018-03-17T23:01:49.497Z,101326.36
2018-03-17T23:06:52.906Z,101311.89
2018-03-17T23:11:55.401Z,101333.44
2018-03-17T23:16:57.908Z,101338.09
2018-03-17T23:22:00.385Z,101338.72
2018-03-17T23:27:02.888Z,101345.91
2018-03-17T23:32:05.509Z,101350.89
2018-03-17T23:37:08.069Z,101358.09
2018-03-17T23:42:10.622Z,101352.63
2018-03-17T23:47:13.153Z,101338.21
2018-03-17T23:52:16.077Z,101342.30
2018-03-17T23:57:18.586Z,101347.70
